Time;durP1;ratioP1;P1;durP2;ratioP2;P2;SDS_P1;SDS_P2;PMS_P1;PMS_P2;Temp;Humidity;BMP_temperature;BMP_pressure;BME280_temperature;BME280_humidity;BME280_pressure;Samples;Min_cycle;Max_cycle;Signal;HPM_P1;HPM_P2
2022/03/16 00:01:53;;;;;;;39.33;35.17;;;;;;;10.34;58.09;102503.41;4968368;28;20536;-84
2022/03/16 00:04:21;;;;;;;37.92;33.88;;;;;;;10.06;58.23;102467.78;4968362;28;20473;-84
2022/03/16 00:06:47;;;;;;;41.47;34.95;;;;;;;9.35;58.09;102351.59;4968670;28;20043;-83
2022/03/16 00:09:14;;;;;;;40.13;34.97;;;;;;;9.98;58.24;102454.13;4968093;28;20522;-84
2022/03/16 00:11:41;;;;;;;41.25;35.97;;;;;;;8.96;57.96;102278.66;4968606;28;20051;-83
2022/03/16 00:14:07;;;;;;;39.13;34.65;;;;;;;10.21;58.19;102486.44;4968441;28;20078;-84
2022/03/16 00:16:34;;;;;;;41.38;33.80;;;;;;;9.26;58.74;102319.44;4987255;28;20069;-83
2022/03/16 00:19:01;;;;;;;40.83;33.47;;;;;;;10.35;58.13;102496.31;4987994;28;20054;-83
2022/03/16 00:21:27;;;;;;;41.35;34.13;;;;;;;9.55;58.48;102363.72;4989106;28;20050;-83
2022/03/16 00:23:54;;;;;;;42.50;34.15;;;;;;;10.07;58.81;102452.72;4987800;28;20094;-83
2022/03/16 00:26:21;;;;;;;43.10;34.65;;;;;;;9.20;58.91;102318.00;4987600;28;20133;-83
2022/03/16 00:28:47;;;;;;;37.72;33.50;;;;;;;10.27;59.07;102491.41;4989131;28;20471;-84
2022/03/16 00:31:14;;;;;;;39.50;33.97;;;;;;;9.95;58.54;102443.69;4988597;28;20456;-84
2022/03/16 00:33:41;;;;;;;37.50;33.42;;;;;;;10.22;58.78;102488.16;4988383;28;20530;-83
2022/03/16 00:36:08;;;;;;;43.35;36.22;;;;;;;9.86;57.83;102406.22;4987502;28;20134;-84
2022/03/16 00:38:34;;;;;;;38.80;34.60;;;;;;;10.05;58.26;102442.22;4988560;28;20080;-83
2022/03/16 00:41:02;;;;;;;39.72;34.60;;;;;;;10.18;58.16;102465.38;4989484;28;20073;-83
2022/03/16 00:43:29;;;;;;;38.85;34.72;;;;;;;10.28;58.59;102490.47;4990550;28;20047;-84
2022/03/16 00:45:55;;;;;;;39.70;35.00;;;;;;;10.19;58.49;102469.75;4993860;28;20492;-84
2022/03/16 00:48:24;;;;;;;37.58;33.72;;;;;;;10.25;59.01;102482.69;4995228;28;20057;-82
2022/03/16 00:50:51;;;;;;;46.83;35.30;;;;;;;10.00;59.14;102446.94;4990900;28;20194;-82
2022/03/16 00:53:18;;;;;;;39.67;35.60;;;;;;;9.90;58.80;102424.50;4989857;28;20058;-81
2022/03/16 00:55:45;;;;;;;38.00;33.97;;;;;;;10.20;58.35;102466.16;4991301;28;20062;-83
2022/03/16 00:58:11;;;;;;;40.42;34.15;;;;;;;10.11;58.69;102445.44;4990859;28;20141;-83
2022/03/16 01:00:38;;;;;;;39.70;35.25;;;;;;;10.12;57.19;102404.69;4991997;28;20050;-84
2022/03/16 01:03:05;;;;;;;39.20;34.92;;;;;;;10.52;57.08;102453.69;4992420;28;20058;-82
2022/03/16 01:05:31;;;;;;;38.78;33.90;;;;;;;10.51;57.58;102448.44;4990774;28;20055;-84
2022/03/16 01:07:58;;;;;;;45.58;34.58;;;;;;;10.36;57.65;102432.47;4991368;28;20145;-83
2022/03/16 01:10:25;;;;;;;39.78;34.75;;;;;;;10.22;58.27;102406.72;4992012;28;20136;-83
2022/03/16 01:12:53;;;;;;;39.83;34.95;;;;;;;10.25;57.65;102403.03;4990701;28;20134;-83
2022/03/16 01:15:23;;;;;;;42.38;35.88;;;;;;;10.41;57.25;102398.56;4982657;28;20082;-84
2022/03/16 01:17:50;;;;;;;42.00;35.92;;;;;;;10.41;57.02;102397.69;4971095;28;20314;-83
2022/03/16 01:20:21;;;;;;;44.20;34.45;;;;;;;10.47;58.64;102423.91;4972104;28;20091;-83
2022/03/16 01:22:47;;;;;;;39.05;34.53;;;;;;;8.92;58.48;102175.63;4973104;28;20134;-83
2022/03/16 01:25:14;;;;;;;40.67;34.97;;;;;;;10.26;59.84;102410.03;4977199;28;20102;-83
2022/03/16 01:27:41;;;;;;;39.22;33.10;;;;;;;10.15;59.38;102396.56;4982336;28;20110;-83
2022/03/16 01:30:08;;;;;;;47.58;35.58;;;;;;;10.17;58.95;102399.97;4981710;28;20069;-80
2022/03/16 01:32:35;;;;;;;37.60;33.60;;;;;;;10.15;59.32;102396.56;4971235;28;20464;-83
2022/03/16 01:35:02;;;;;;;39.17;34.50;;;;;;;10.03;59.53;102367.16;4971298;28;20058;-84
2022/03/16 01:37:30;;;;;;;39.15;34.97;;;;;;;10.00;59.54;102383.25;4972483;28;20476;-83
2022/03/16 01:39:57;;;;;;;44.50;35.03;;;;;;;9.84;59.11;102340.81;4970952;28;20054;-84
2022/03/16 01:42:25;;;;;;;38.60;33.95;;;;;;;10.08;59.57;102387.25;4970794;28;20069;-84
2022/03/16 01:44:54;;;;;;;40.63;34.72;;;;;;;10.04;59.76;102381.25;4970540;28;20083;-84
2022/03/16 01:47:22;;;;;;;42.25;35.10;;;;;;;9.61;59.58;102306.81;4970452;28;20061;-84
2022/03/16 01:49:50;;;;;;;42.53;35.53;;;;;;;10.05;59.12;102365.25;4970859;28;20081;-83
2022/03/16 01:52:23;;;;;;;39.17;34.97;;;;;;;10.12;58.21;102354.25;4970096;28;20484;-83
2022/03/16 01:54:50;;;;;;;41.25;33.67;;;;;;;10.12;58.87;102364.88;4970698;28;20435;-80
2022/03/16 01:57:18;;;;;;;41.13;36.22;;;;;;;10.12;59.57;102372.84;4971514;28;20515;-82
2022/03/16 01:59:45;;;;;;;38.30;34.25;;;;;;;10.04;59.82;102366.19;4971846;28;20082;-83
2022/03/16 02:02:12;;;;;;;38.20;33.53;;;;;;;10.06;60.07;102366.94;4971298;28;20053;-82
2022/03/16 02:04:40;;;;;;;40.65;35.63;;;;;;;9.26;59.56;102237.28;4967750;28;20282;-81
2022/03/16 02:07:07;;;;;;;38.97;34.78;;;;;;;9.45;60.05;102268.91;4968772;28;20046;-82
2022/03/16 02:09:35;;;;;;;41.42;35.50;;;;;;;10.06;59.12;102363.44;4968310;28;20113;-82
2022/03/16 02:12:02;;;;;;;41.55;34.38;;;;;;;10.02;59.58;102349.53;4968025;28;20133;-82
2022/03/16 02:14:29;;;;;;;38.53;33.33;;;;;;;9.83;59.83;102322.38;4970770;28;20047;-83
2022/03/16 02:16:57;;;;;;;39.00;34.80;;;;;;;10.17;58.96;102358.38;4987669;28;20053;-83
2022/03/16 02:19:24;;;;;;;39.33;34.88;;;;;;;10.17;58.91;102368.13;4987864;28;20062;-82
2022/03/16 02:21:57;;;;;;;38.58;34.47;;;;;;;9.46;59.29;102260.00;4988866;28;20050;-82
2022/03/16 02:24:29;;;;;;;42.90;35.42;;;;;;;10.04;59.83;102366.19;4987218;28;20105;-81
2022/03/16 02:26:57;;;;;;;42.70;34.97;;;;;;;9.71;59.19;102296.53;4987397;28;20547;-82
2022/03/16 02:29:24;;;;;;;41.00;34.85;;;;;;;10.04;59.27;102344.94;4988567;28;20057;-84
2022/03/16 02:31:51;;;;;;;40.33;34.72;;;;;;;10.15;58.39;102354.09;4987641;28;20286;-85
2022/03/16 02:34:17;;;;;;;40.85;34.05;;;;;;;9.99;59.34;102331.09;4987475;28;20054;-85
2022/03/16 02:36:44;;;;;;;43.40;35.88;;;;;;;9.84;59.74;102329.38;4988818;28;20109;-84
2022/03/16 02:39:11;;;;;;;45.00;34.92;;;;;;;9.94;60.05;102346.44;4987298;28;20300;-84
2022/03/16 02:41:37;;;;;;;40.55;34.50;;;;;;;9.97;60.14;102356.88;4987612;28;20650;-83
2022/03/16 02:44:04;;;;;;;42.55;35.67;;;;;;;9.54;60.92;102278.94;4988472;28;20046;-84
2022/03/16 02:46:31;;;;;;;41.90;35.55;;;;;;;9.98;59.75;102347.13;4987414;28;20050;-82
2022/03/16 02:48:57;;;;;;;37.10;32.60;;;;;;;9.95;59.98;102337.56;4988553;28;20050;-84
2022/03/16 02:51:25;;;;;;;37.70;33.67;;;;;;;9.89;60.41;102322.00;4987097;28;20128;-83
2022/03/16 02:53:52;;;;;;;41.95;34.95;;;;;;;9.49;59.93;102249.19;4987678;28;20089;-83
2022/03/16 02:56:19;;;;;;;39.55;34.58;;;;;;;9.94;60.14;102330.53;4988461;28;20208;-83
2022/03/16 02:58:46;;;;;;;40.80;34.92;;;;;;;9.67;60.58;102284.41;4988455;28;20053;-84
2022/03/16 03:01:13;;;;;;;43.70;34.95;;;;;;;9.68;60.82;102292.25;4986827;28;20452;-84
2022/03/16 03:03:40;;;;;;;40.45;35.38;;;;;;;9.96;59.99;102327.78;4987499;28;20050;-83
2022/03/16 03:06:06;;;;;;;40.28;35.00;;;;;;;9.79;59.96;102300.47;4986775;28;20046;-84
2022/03/16 03:08:33;;;;;;;40.22;34.78;;;;;;;9.46;60.36;102252.03;4986545;28;20512;-84
2022/03/16 03:11:00;;;;;;;44.20;36.15;;;;;;;9.84;59.63;102314.31;4986928;28;20152;-83
2022/03/16 03:13:27;;;;;;;37.97;33.85;;;;;;;9.67;60.64;102279.97;4986531;28;20477;-82
2022/03/16 03:15:54;;;;;;;39.28;35.03;;;;;;;9.89;60.78;102311.38;4973895;28;20469;-83
2022/03/16 03:18:21;;;;;;;39.28;35.00;;;;;;;9.67;60.47;102265.84;4967071;28;20121;-82
2022/03/16 03:20:48;;;;;;;41.63;34.83;;;;;;;9.53;61.00;102253.38;4967178;28;20046;-84
2022/03/16 03:23:14;;;;;;;43.25;35.20;;;;;;;9.77;60.73;102305.00;4966957;28;20051;-84
2022/03/16 03:25:41;;;;;;;45.72;34.55;;;;;;;9.55;60.69;102255.00;4967454;28;20105;-83
2022/03/16 03:28:08;;;;;;;41.97;34.25;;;;;;;9.67;60.89;102279.09;4967343;28;20145;-83
2022/03/16 03:30:34;;;;;;;50.60;35.33;;;;;;;9.84;61.06;102302.84;4967667;28;20058;-83
2022/03/16 03:33:01;;;;;;;42.45;34.50;;;;;;;9.85;60.32;102309.84;4969127;28;20055;-84
2022/03/16 03:35:28;;;;;;;41.95;34.30;;;;;;;9.80;60.52;102294.19;4971586;28;20086;-84
2022/03/16 03:37:54;;;;;;;44.80;34.35;;;;;;;9.82;60.13;102291.47;4972822;28;20053;-84
2022/03/16 03:40:21;;;;;;;40.38;34.63;;;;;;;9.53;60.28;102224.22;4971677;28;20078;-84
2022/03/16 03:42:48;;;;;;;41.95;36.75;;;;;;;9.58;60.49;102238.91;4974343;28;20101;-84
2022/03/16 03:45:15;;;;;;;39.13;34.63;;;;;;;9.83;61.35;102283.44;4975073;28;20050;-83
2022/03/16 03:47:42;;;;;;;40.97;35.75;;;;;;;9.72;60.60;102248.72;4977618;28;20047;-84
2022/03/16 03:50:09;;;;;;;48.08;37.03;;;;;;;9.94;59.86;102282.78;4974315;28;20085;-83
2022/03/16 03:52:35;;;;;;;42.03;36.80;;;;;;;9.92;60.58;102265.25;4966853;28;20078;-84
2022/03/16 03:55:03;;;;;;;41.72;37.20;;;;;;;9.65;60.09;102212.03;4967061;28;20054;-84
2022/03/16 03:57:29;;;;;;;41.80;36.95;;;;;;;9.90;59.79;102225.53;4968232;28;20381;-83
2022/03/16 03:59:56;;;;;;;43.10;36.10;;;;;;;10.04;59.56;102236.16;4966251;28;20559;-84
2022/03/16 04:02:23;;;;;;;40.47;35.67;;;;;;;10.13;60.10;102249.84;4966009;28;20220;-84
2022/03/16 04:04:50;;;;;;;41.03;35.00;;;;;;;9.78;60.76;102203.28;4966586;28;20141;-83
2022/03/16 04:07:16;;;;;;;45.72;37.53;;;;;;;9.55;60.92;102171.97;4966590;28;20054;-84
2022/03/16 04:09:43;;;;;;;43.63;36.75;;;;;;;10.08;60.74;102273.16;4967641;28;20129;-83
2022/03/16 04:12:09;;;;;;;40.97;36.50;;;;;;;9.83;60.89;102227.72;4966441;28;20042;-83
2022/03/16 04:14:36;;;;;;;40.95;36.38;;;;;;;10.11;59.73;102267.66;4970036;28;20126;-84
2022/03/16 04:17:03;;;;;;;42.92;37.83;;;;;;;9.98;60.23;102236.56;4985552;28;20042;-83
2022/03/16 04:19:30;;;;;;;42.72;38.00;;;;;;;9.95;60.87;102238.53;4985719;28;20454;-84
2022/03/16 04:21:56;;;;;;;43.28;38.17;;;;;;;9.99;60.70;102256.81;4985745;28;20134;-84
2022/03/16 04:24:23;;;;;;;45.60;38.50;;;;;;;9.81;60.25;102212.84;4985810;28;20046;-83
2022/03/16 04:26:50;;;;;;;46.00;37.58;;;;;;;9.99;60.25;102248.84;4985858;28;20519;-84
2022/03/16 04:29:17;;;;;;;43.85;36.85;;;;;;;10.09;60.19;102258.91;4989645;28;20132;-84
2022/03/16 04:31:43;;;;;;;41.67;36.10;;;;;;;9.90;60.26;102230.84;4989799;28;20053;-83
2022/03/16 04:34:10;;;;;;;48.00;38.17;;;;;;;9.62;60.26;102181.25;4989541;28;20050;-83
2022/03/16 04:36:37;;;;;;;44.10;37.28;;;;;;;9.91;60.89;102235.22;4990873;28;20082;-84
2022/03/16 04:39:03;;;;;;;43.47;37.78;;;;;;;9.71;60.84;102187.78;4990695;28;20149;-82
2022/03/16 04:41:30;;;;;;;46.67;38.95;;;;;;;10.05;60.33;102248.50;4989339;28;20050;-82
2022/03/16 04:43:56;;;;;;;41.63;37.22;;;;;;;10.02;60.28;102246.03;4989403;28;20056;-83
2022/03/16 04:46:23;;;;;;;42.67;38.10;;;;;;;9.95;60.76;102231.44;4989155;28;20146;-85
2022/03/16 04:48:50;;;;;;;47.53;38.40;;;;;;;9.99;60.55;102238.25;4990657;28;20511;-85
2022/03/16 04:51:16;;;;;;;41.10;36.70;;;;;;;9.88;61.03;102229.22;4989614;28;20050;-84
2022/03/16 04:53:43;;;;;;;53.08;40.20;;;;;;;9.95;60.87;102247.34;4989448;28;20081;-83
2022/03/16 04:56:10;;;;;;;45.35;38.25;;;;;;;9.79;60.56;102209.44;4989003;28;20145;-83
2022/03/16 04:58:38;;;;;;;46.80;38.38;;;;;;;9.77;61.41;102217.47;4989447;28;20127;-84
2022/03/16 05:01:04;;;;;;;46.72;41.40;;;;;;;9.93;60.65;102235.97;4989104;28;20416;-83
2022/03/16 05:03:31;;;;;;;51.80;39.50;;;;;;;9.82;61.00;102209.22;4989509;28;20085;-83
2022/03/16 05:05:58;;;;;;;49.75;40.95;;;;;;;10.08;60.62;102241.31;4989065;28;20058;-83
2022/03/16 05:08:25;;;;;;;44.35;38.70;;;;;;;9.49;61.09;102138.72;4988875;28;20050;-84
2022/03/16 05:10:52;;;;;;;46.58;38.75;;;;;;;8.76;61.34;102041.47;4990466;28;20477;-84
2022/03/16 05:13:18;;;;;;;48.10;40.90;;;;;;;9.94;61.42;102240.31;4988808;28;20046;-81
2022/03/16 05:15:47;;;;;;;46.70;39.25;;;;;;;9.81;62.10;102223.47;4976192;28;20055;-83
2022/03/16 05:18:14;;;;;;;49.95;41.33;;;;;;;9.77;61.22;102216.63;4969090;28;20047;-83
2022/03/16 05:20:41;;;;;;;46.67;40.38;;;;;;;9.82;61.79;102217.19;4969367;28;20584;-85
2022/03/16 05:23:07;;;;;;;46.15;39.92;;;;;;;9.95;61.59;102231.44;4969545;28;20047;-81
2022/03/16 05:25:35;;;;;;;52.08;40.78;;;;;;;10.03;61.14;102231.81;4970779;28;20481;-83
2022/03/16 05:28:02;;;;;;;53.33;41.53;;;;;;;10.05;60.77;102232.59;4969233;28;20050;-85
2022/03/16 05:30:29;;;;;;;48.55;40.20;;;;;;;9.83;60.60;102197.69;4969358;28;20074;-84
2022/03/16 05:33:00;;;;;;;50.25;41.28;;;;;;;9.79;60.98;102193.50;4975698;28;20277;-83
2022/03/16 05:35:28;;;;;;;47.38;40.03;;;;;;;8.80;60.95;102012.16;4978250;28;20055;-83
2022/03/16 05:37:56;;;;;;;52.83;40.80;;;;;;;9.94;60.63;102197.03;4982394;28;20046;-84
2022/03/16 05:40:22;;;;;;;55.92;40.92;;;;;;;10.04;60.75;102214.94;4980478;28;20085;-83
2022/03/16 05:42:49;;;;;;;53.38;40.92;;;;;;;10.17;60.77;102238.06;4971655;28;20532;-84
2022/03/16 05:45:20;;;;;;;51.45;40.50;;;;;;;9.87;60.67;102185.94;4991227;28;20107;-84
2022/03/16 05:47:47;;;;;;;46.47;40.75;;;;;;;10.14;60.78;102233.81;4985253;28;20042;-85
2022/03/16 05:50:13;;;;;;;52.45;39.38;;;;;;;9.89;60.99;102218.53;4973751;28;20412;-82
2022/03/16 05:52:41;;;;;;;49.45;39.75;;;;;;;9.94;61.92;102229.72;4971315;28;20055;-83
2022/03/16 05:55:09;;;;;;;50.75;40.47;;;;;;;9.90;61.62;102230.84;4968794;28;20133;-83
2022/03/16 05:57:45;;;;;;;46.97;39.28;;;;;;;9.58;61.77;102196.50;4953324;28;20552;-83
2022/03/16 06:00:14;;;;;;;45.75;40.42;;;;;;;9.94;61.89;102261.56;4968651;28;20138;-82
2022/03/16 06:02:43;;;;;;;50.45;41.28;;;;;;;9.77;62.34;102228.06;4968475;28;20533;-83
2022/03/16 06:05:10;;;;;;;53.60;39.58;;;;;;;9.91;61.81;102256.44;4966230;28;20459;-81
2022/03/16 06:07:40;;;;;;;45.97;39.17;;;;;;;9.71;62.16;102233.75;4966672;28;20097;-81
2022/03/16 06:10:09;;;;;;;45.95;40.55;;;;;;;9.68;61.47;102218.00;4967237;28;20062;-83
2022/03/16 06:12:56;;;;;;;45.10;40.28;;;;;;;9.99;62.05;102262.13;4967059;28;20177;-85
2022/03/16 06:15:27;;;;;;;46.78;39.25;;;;;;;9.80;61.20;102200.50;4967194;28;20046;-85
2022/03/16 06:18:00;;;;;;;53.30;42.30;;;;;;;8.41;60.83;101972.03;4966387;28;20054;-82
2022/03/16 06:20:31;;;;;;;49.55;41.38;;;;;;;10.16;61.44;102270.88;4966219;28;20051;-81
2022/03/16 06:22:58;;;;;;;51.30;42.53;;;;;;;9.77;61.62;102208.66;4966188;28;20055;-83
2022/03/16 06:25:24;;;;;;;49.85;42.05;;;;;;;10.11;61.59;102262.34;4965990;28;20509;-83
2022/03/16 06:27:52;;;;;;;47.60;39.65;;;;;;;10.19;61.69;102273.34;4966690;28;20109;-83
2022/03/16 06:30:20;;;;;;;51.75;41.70;;;;;;;10.13;61.12;102255.16;4965590;28;20046;-84
2022/03/16 06:32:47;;;;;;;49.13;41.78;;;;;;;9.40;61.10;102120.72;4966077;28;20504;-82
2022/03/16 06:35:15;;;;;;;46.97;41.10;;;;;;;9.72;61.13;102170.97;4966320;28;20050;-83
2022/03/16 06:37:43;;;;;;;54.42;41.53;;;;;;;10.27;60.92;102248.03;4966281;28;20047;-83
2022/03/16 06:40:10;;;;;;;48.38;40.67;;;;;;;10.30;61.21;102252.34;4966844;28;20323;-82
2022/03/16 06:42:52;;;;;;;50.30;41.20;;;;;;;10.48;61.75;102261.84;4970608;28;20065;-84
2022/03/16 06:45:20;;;;;;;55.08;41.85;;;;;;;10.37;61.83;102235.09;4968781;28;20114;-83
2022/03/16 06:47:46;;;;;;;54.67;42.45;;;;;;;9.71;60.92;102113.53;4972566;28;20137;-83
2022/03/16 06:50:14;;;;;;;46.97;41.92;;;;;;;10.67;60.96;102268.63;4974324;28;20138;-82
2022/03/16 06:52:41;;;;;;;56.97;43.38;;;;;;;10.68;61.26;102265.91;4970950;28;20466;-83
2022/03/16 06:55:09;;;;;;;51.05;43.08;;;;;;;10.63;61.74;102256.50;4952751;28;20051;-85
2022/03/16 06:57:36;;;;;;;55.03;43.03;;;;;;;9.42;61.27;102052.56;4962460;28;20571;-83
2022/03/16 07:00:05;;;;;;;58.88;41.90;;;;;;;10.75;60.93;102266.34;4962358;28;20764;-84
2022/03/16 07:02:45;;;;;;;53.05;42.95;;;;;;;10.31;61.48;102184.19;4961987;28;20091;-83
2022/03/16 07:05:12;;;;;;;59.40;42.85;;;;;;;10.80;61.74;102266.06;4947596;28;20055;-83
2022/03/16 07:07:39;;;;;;;54.33;43.20;;;;;;;10.82;61.38;102270.31;4947813;28;20097;-83
2022/03/16 07:10:06;;;;;;;50.78;41.45;;;;;;;10.34;61.32;102190.16;4962174;28;20054;-83
2022/03/16 07:12:33;;;;;;;52.58;42.08;;;;;;;10.91;61.29;102272.41;4947425;28;20375;-83
2022/03/16 07:14:59;;;;;;;54.95;43.83;;;;;;;10.97;60.88;102272.94;4971970;28;20073;-84
2022/03/16 07:17:26;;;;;;;54.58;45.20;;;;;;;10.72;61.30;102229.34;4986999;28;20112;-84
2022/03/16 07:19:53;;;;;;;66.47;46.60;;;;;;;11.07;61.29;102277.59;4987886;28;20085;-83
2022/03/16 07:22:19;;;;;;;57.67;45.78;;;;;;;11.09;61.27;102264.19;4986615;28;20057;-83
2022/03/16 07:25:09;;;;;;;68.10;46.00;;;;;;;10.71;60.89;102190.47;4985745;28;20118;-83
2022/03/16 07:27:37;;;;;;;60.20;45.97;;;;;;;11.12;61.88;102248.91;4967284;28;20469;-84
2022/03/16 07:30:09;;;;;;;56.47;46.67;;;;;;;11.23;61.63;102269.47;4967141;28;20054;-84
2022/03/16 07:32:40;;;;;;;62.53;46.75;;;;;;;10.62;61.47;102167.16;4966905;28;20055;-83
2022/03/16 07:35:12;;;;;;;60.90;45.40;;;;;;;10.79;61.56;102196.13;4967419;28;20047;-82
2022/03/16 07:37:39;;;;;;;54.00;44.65;;;;;;;11.02;61.73;102233.63;4969053;28;20042;-82
2022/03/16 07:40:06;;;;;;;61.03;45.58;;;;;;;11.40;61.29;102281.66;4966440;28;20433;-82
2022/03/16 07:42:34;;;;;;;55.95;46.88;;;;;;;11.44;60.36;102264.56;4966510;28;20756;-83
2022/03/16 07:45:05;;;;;;;59.10;46.63;;;;;;;11.22;60.34;102211.09;4968341;28;20105;-84
2022/03/16 07:47:31;;;;;;;57.25;46.72;;;;;;;11.68;58.98;102266.53;4966805;28;20051;-83
2022/03/16 07:50:07;;;;;;;55.00;45.22;;;;;;;11.77;59.48;102258.78;4967556;28;20437;-82
2022/03/16 07:52:35;;;;;;;58.65;44.30;;;;;;;11.47;58.14;102202.31;4969188;28;20074;-83
2022/03/16 07:55:03;;;;;;;50.85;41.95;;;;;;;11.99;57.72;102260.03;4972493;28;20422;-83
2022/03/16 07:57:30;;;;;;;42.38;35.88;;;;;;;11.99;56.08;102236.06;4980156;28;20081;-83
2022/03/16 07:59:56;;;;;;;37.95;31.65;;;;;;;12.29;55.54;102254.38;4978397;28;20059;-84
2022/03/16 08:02:26;;;;;;;37.42;32.33;;;;;;;11.79;54.73;102154.91;4976024;28;20078;-83
2022/03/16 08:04:57;;;;;;;40.53;32.20;;;;;;;12.27;54.01;102218.16;4972514;28;20177;-81
2022/03/16 08:07:26;;;;;;;35.42;29.75;;;;;;;12.60;53.91;102262.88;4970897;28;20046;-83
2022/03/16 08:09:53;;;;;;;35.85;30.90;;;;;;;12.65;53.34;102270.53;4971131;28;20412;-82
2022/03/16 08:12:20;;;;;;;34.78;30.13;;;;;;;12.75;53.26;102276.91;4972775;28;20129;-82
2022/03/16 08:14:46;;;;;;;39.33;31.55;;;;;;;12.70;52.86;102252.41;4975598;28;20053;-82
2022/03/16 08:17:13;;;;;;;33.63;29.02;;;;;;;12.81;53.26;102252.47;4989919;28;20077;-82
2022/03/16 08:19:40;;;;;;;34.40;29.75;;;;;;;12.89;53.21;102274.13;4990470;28;20058;-84
2022/03/16 08:22:06;;;;;;;35.05;28.58;;;;;;;12.75;52.89;102250.25;4990284;28;20145;-82
2022/03/16 08:24:33;;;;;;;32.55;26.23;;;;;;;13.01;52.58;102262.56;4991700;28;20057;-83
2022/03/16 08:27:16;;;;;;;32.47;26.20;;;;;;;12.71;52.17;102222.13;4990214;28;20496;-82
2022/03/16 08:29:43;;;;;;;33.03;26.20;;;;;;;12.99;51.78;102244.97;4990213;28;20165;-86
2022/03/16 08:32:10;;;;;;;29.83;25.63;;;;;;;13.25;51.91;102275.03;4991522;28;20326;-85
2022/03/16 08:34:36;;;;;;;32.67;26.13;;;;;;;13.32;51.56;102280.81;4989894;28;20504;-82
2022/03/16 08:37:03;;;;;;;31.38;24.85;;;;;;;13.30;51.95;102264.94;4990749;28;20520;-82
2022/03/16 08:39:39;;;;;;;28.13;25.05;;;;;;;13.40;51.78;102279.28;4989960;28;20050;-83
2022/03/16 08:42:07;;;;;;;31.40;26.02;;;;;;;13.39;51.56;102269.56;4991397;28;20144;-83
2022/03/16 08:44:35;;;;;;;30.73;26.42;;;;;;;13.46;51.79;102278.81;4990119;28;20460;-83
2022/03/16 08:47:01;;;;;;;28.38;24.38;;;;;;;13.08;51.56;102212.28;4990115;28;20137;-83
2022/03/16 08:49:29;;;;;;;29.83;25.58;;;;;;;12.86;51.02;102154.38;4990633;28;20592;-82
2022/03/16 08:51:57;;;;;;;29.35;23.70;;;;;;;13.54;51.24;102261.38;4990621;28;20407;-83
2022/03/16 08:54:25;;;;;;;28.40;23.63;;;;;;;13.84;50.87;102283.09;4990514;28;20432;-83
2022/03/16 08:56:52;;;;;;;30.38;23.42;;;;;;;13.85;50.85;102283.94;4990607;28;20046;-83
2022/03/16 08:59:20;;;;;;;30.60;22.55;;;;;;;13.93;50.71;102275.34;4989207;28;20523;-83
2022/03/16 09:01:47;;;;;;;26.20;22.00;;;;;;;14.06;50.12;102281.44;4989371;28;20065;-83
2022/03/16 09:04:14;;;;;;;23.25;20.73;;;;;;;13.88;49.89;102247.19;4990827;28;20049;-84
2022/03/16 09:06:41;;;;;;;26.77;22.83;;;;;;;13.65;50.17;102214.25;4989024;28;20471;-84
2022/03/16 09:09:07;;;;;;;28.38;23.63;;;;;;;13.88;50.14;102244.53;4990618;28;20054;-83
2022/03/16 09:11:35;;;;;;;29.45;23.15;;;;;;;13.92;50.36;102252.28;4990368;28;20078;-84
2022/03/16 09:14:02;;;;;;;26.13;21.88;;;;;;;14.02;50.29;102251.44;4988512;28;20726;-84
2022/03/16 09:16:29;;;;;;;26.55;23.15;;;;;;;13.88;50.35;102223.16;4970471;28;20047;-84
2022/03/16 09:18:56;;;;;;;30.50;23.35;;;;;;;13.95;50.36;102238.69;4970987;28;20061;-84
2022/03/16 09:21:25;;;;;;;29.65;24.42;;;;;;;13.49;50.63;102170.16;4969631;28;20302;-83
2022/03/16 09:23:55;;;;;;;27.95;23.42;;;;;;;14.15;50.68;102259.38;4970162;28;20078;-84
2022/03/16 09:26:22;;;;;;;25.92;23.13;;;;;;;14.09;50.55;102227.78;4974725;28;20074;-83
2022/03/16 09:28:49;;;;;;;27.55;22.20;;;;;;;14.29;50.52;102251.09;4976634;28;20142;-83
2022/03/16 09:31:16;;;;;;;30.15;22.63;;;;;;;14.33;50.10;102262.41;4977778;28;20042;-85
2022/03/16 09:33:43;;;;;;;28.60;24.73;;;;;;;13.68;50.79;102133.94;4971515;28;20199;-85
2022/03/16 09:36:10;;;;;;;32.45;26.08;;;;;;;13.47;50.21;102082.25;4968840;28;20125;-84
2022/03/16 09:38:38;;;;;;;35.28;24.13;;;;;;;13.43;50.37;102076.31;4968652;28;20413;-84
2022/03/16 09:41:05;;;;;;;25.92;22.90;;;;;;;13.17;50.25;102032.94;4969621;28;20043;-84
2022/03/16 09:43:35;;;;;;;29.05;24.35;;;;;;;13.15;50.26;101996.69;4972767;28;20058;-84
2022/03/16 09:46:07;;;;;;;28.75;23.60;;;;;;;14.70;49.91;102241.66;4972929;28;20053;-83
2022/03/16 09:48:34;;;;;;;25.95;22.90;;;;;;;14.64;49.92;102227.97;4975071;28;20074;-83
2022/03/16 09:51:00;;;;;;;27.48;22.42;;;;;;;14.74;49.97;102234.25;4980441;28;20104;-84
2022/03/16 09:53:27;;;;;;;26.15;22.52;;;;;;;14.64;49.82;102222.63;4978033;28;20050;-84
2022/03/16 09:55:57;;;;;;;23.38;20.90;;;;;;;14.66;49.63;102201.94;4970734;28;20137;-83
2022/03/16 09:58:24;;;;;;;23.80;20.48;;;;;;;14.55;49.93;102193.94;4970404;28;20560;-85
2022/03/16 10:00:54;;;;;;;24.15;20.38;;;;;;;14.66;50.10;102213.50;4969459;28;20082;-85
2022/03/16 10:03:23;;;;;;;25.55;21.60;;;;;;;14.19;50.59;102105.91;4966118;28;20066;-84
2022/03/16 10:05:50;;;;;;;22.60;20.08;;;;;;;14.87;50.12;102202.88;4967306;28;20063;-83
2022/03/16 10:08:32;;;;;;;25.30;19.88;;;;;;;14.09;49.97;102048.88;4969052;28;20102;-84
2022/03/16 10:14:14;;;;;;;21.42;19.15;;;;;;;13.91;49.66;101960.47;4973755;28;20078;-83
2022/03/16 10:19:51;;;;;;;22.83;19.75;;;;;;;15.34;49.24;102167.78;4955454;28;20488;-83
2022/03/16 10:22:26;;;;;;;23.05;18.80;;;;;;;15.53;48.87;102177.78;4952426;28;20115;-83
2022/03/16 10:25:05;;;;;;;21.60;18.98;;;;;;;15.20;48.66;102111.94;4948584;28;20075;-83
2022/03/16 10:27:38;;;;;;;19.83;17.73;;;;;;;15.76;48.59;102190.09;4949421;28;20438;-83
2022/03/16 10:30:08;;;;;;;20.27;17.67;;;;;;;15.93;48.44;102191.31;4950181;28;20561;-83
2022/03/16 10:33:00;;;;;;;21.17;17.40;;;;;;;15.95;48.30;102167.09;4950898;28;20683;-81
2022/03/16 10:35:26;;;;;;;19.15;16.33;;;;;;;16.05;48.17;102178.69;4950168;28;20051;-85
2022/03/16 10:38:06;;;;;;;22.33;16.77;;;;;;;16.14;47.96;102150.22;4948834;28;20122;-84
2022/03/16 10:40:34;;;;;;;23.58;17.83;;;;;;;15.39;47.86;102011.25;4964789;28;20043;-84
2022/03/16 10:49:00;;;;;;;23.33;17.55;;;;;;;16.97;46.24;102169.66;4968460;28;20051;-83
2022/03/16 10:51:27;;;;;;;19.90;17.77;;;;;;;16.96;46.42;102141.13;4969245;28;20121;-83
2022/03/16 10:54:14;;;;;;;18.10;16.17;;;;;;;17.21;45.73;102148.63;4968496;28;20047;-84
2022/03/16 10:56:41;;;;;;;18.15;15.70;;;;;;;17.37;45.11;102145.34;4967362;28;20054;-84
2022/03/16 10:59:08;;;;;;;18.40;16.45;;;;;;;17.32;45.62;102130.66;4967486;28;20043;-86
2022/03/16 11:01:38;;;;;;;18.60;16.30;;;;;;;17.55;45.43;102137.41;4967438;28;20062;-85
2022/03/16 11:04:06;;;;;;;20.88;14.90;;;;;;;17.00;45.16;102040.59;4971931;28;20098;-84
2022/03/16 11:06:34;;;;;;;16.40;14.48;;;;;;;17.36;45.75;102087.28;4967623;28;20548;-84
2022/03/16 11:09:02;;;;;;;16.40;14.45;;;;;;;17.73;44.87;102130.28;4967315;28;20056;-84
2022/03/16 11:14:17;;;;;;;18.25;14.20;;;;;;;18.00;43.82;102125.97;4968657;28;20074;-84
2022/03/16 11:16:44;;;;;;;14.35;12.27;;;;;;;17.91;44.15;102105.34;4988085;28;20062;-85
2022/03/16 11:19:15;;;;;;;14.27;11.73;;;;;;;18.05;44.17;102118.31;4986626;28;20077;-84
2022/03/16 11:21:49;;;;;;;14.02;10.82;;;;;;;18.14;43.25;102112.03;4987979;28;20477;-85
2022/03/16 11:24:22;;;;;;;15.23;13.35;;;;;;;17.96;43.83;102086.94;4986506;28;20150;-85
2022/03/16 11:27:09;;;;;;;13.77;11.27;;;;;;;18.20;43.25;102107.91;4987506;28;20108;-85
2022/03/16 11:29:46;;;;;;;9.80;8.90;;;;;;;17.99;43.02;102065.19;4988174;28;20061;-85
2022/03/16 11:32:18;;;;;;;11.52;9.68;;;;;;;18.25;43.41;102102.91;4986764;28;20332;-84